sensor_id;sensor_type;location;lat;lon;timestamp;temperature;humidity
28959;DHT22;16066;0.000;0.000;2023-03-13T00:00:57;20.20;39.70
28959;DHT22;16066;0.000;0.000;2023-03-13T00:03:23;20.20;39.80
28959;DHT22;16066;0.000;0.000;2023-03-13T00:05:48;20.20;39.90
28959;DHT22;16066;0.000;0.000;2023-03-13T00:08:14;20.20;39.90
28959;DHT22;16066;0.000;0.000;2023-03-13T00:10:40;20.10;39.80
28959;DHT22;16066;0.000;0.000;2023-03-13T00:13:07;20.10;39.90
28959;DHT22;16066;0.000;0.000;2023-03-13T00:15:33;20.10;40.00
28959;DHT22;16066;0.000;0.000;2023-03-13T00:17:58;20.10;40.00
28959;DHT22;16066;0.000;0.000;2023-03-13T00:20:24;20.00;40.00
28959;DHT22;16066;0.000;0.000;2023-03-13T00:22:49;20.00;40.00
28959;DHT22;16066;0.000;0.000;2023-03-13T00:25:15;20.00;40.10
28959;DHT22;16066;0.000;0.000;2023-03-13T00:27:40;19.90;40.10
28959;DHT22;16066;0.000;0.000;2023-03-13T00:30:06;19.90;40.20
28959;DHT22;16066;0.000;0.000;2023-03-13T00:32:32;19.90;40.20
28959;DHT22;16066;0.000;0.000;2023-03-13T00:34:58;19.90;40.30
28959;DHT22;16066;0.000;0.000;2023-03-13T00:37:23;19.90;40.30
28959;DHT22;16066;0.000;0.000;2023-03-13T00:39:48;19.80;40.30
28959;DHT22;16066;0.000;0.000;2023-03-13T00:42:14;19.80;40.40
28959;DHT22;16066;0.000;0.000;2023-03-13T00:44:39;19.80;40.40
28959;DHT22;16066;0.000;0.000;2023-03-13T00:47:05;19.80;40.50
28959;DHT22;16066;0.000;0.000;2023-03-13T00:49:31;19.70;40.50
28959;DHT22;16066;0.000;0.000;2023-03-13T00:51:57;19.70;40.50
28959;DHT22;16066;0.000;0.000;2023-03-13T00:54:23;19.70;40.50
28959;DHT22;16066;0.000;0.000;2023-03-13T00:56:48;19.70;40.60
28959;DHT22;16066;0.000;0.000;2023-03-13T00:59:14;19.70;40.60
28959;DHT22;16066;0.000;0.000;2023-03-13T01:01:40;19.60;40.60
28959;DHT22;16066;0.000;0.000;2023-03-13T01:04:08;19.60;40.60
28959;DHT22;16066;0.000;0.000;2023-03-13T01:06:36;19.60;40.60
28959;DHT22;16066;0.000;0.000;2023-03-13T01:09:04;19.60;40.70
28959;DHT22;16066;0.000;0.000;2023-03-13T01:11:32;19.60;40.80
28959;DHT22;16066;0.000;0.000;2023-03-13T01:14:01;19.50;40.80
28959;DHT22;16066;0.000;0.000;2023-03-13T01:16:29;19.50;40.80
28959;DHT22;16066;0.000;0.000;2023-03-13T01:18:59;19.50;40.90
28959;DHT22;16066;0.000;0.000;2023-03-13T01:21:25;19.50;40.90
28959;DHT22;16066;0.000;0.000;2023-03-13T01:23:52;19.50;40.90
28959;DHT22;16066;0.000;0.000;2023-03-13T01:26:18;19.50;41.00
28959;DHT22;16066;0.000;0.000;2023-03-13T01:28:44;19.40;41.00
28959;DHT22;16066;0.000;0.000;2023-03-13T01:33:44;19.40;41.10
28959;DHT22;16066;0.000;0.000;2023-03-13T01:36:09;19.40;41.10
28959;DHT22;16066;0.000;0.000;2023-03-13T01:38:36;19.40;41.20
28959;DHT22;16066;0.000;0.000;2023-03-13T01:41:02;19.40;41.20
28959;DHT22;16066;0.000;0.000;2023-03-13T01:43:33;19.40;41.20
28959;DHT22;16066;0.000;0.000;2023-03-13T01:46:14;19.40;41.30
28959;DHT22;16066;0.000;0.000;2023-03-13T01:51:58;19.30;41.20
28959;DHT22;16066;0.000;0.000;2023-03-13T01:54:29;19.30;41.40
28959;DHT22;16066;0.000;0.000;2023-03-13T01:57:03;19.30;41.40
28959;DHT22;16066;0.000;0.000;2023-03-13T01:59:38;19.20;41.30
28959;DHT22;16066;0.000;0.000;2023-03-13T02:02:05;19.20;41.40
28959;DHT22;16066;0.000;0.000;2023-03-13T02:04:37;19.20;41.40
28959;DHT22;16066;0.000;0.000;2023-03-13T02:07:08;19.20;41.40
28959;DHT22;16066;0.000;0.000;2023-03-13T02:09:36;19.20;41.50
28959;DHT22;16066;0.000;0.000;2023-03-13T02:12:12;19.20;41.50
28959;DHT22;16066;0.000;0.000;2023-03-13T02:14:41;19.20;41.60
28959;DHT22;16066;0.000;0.000;2023-03-13T02:17:08;19.20;41.60
28959;DHT22;16066;0.000;0.000;2023-03-13T02:24:50;19.10;41.70
28959;DHT22;16066;0.000;0.000;2023-03-13T02:27:18;19.10;41.70
28959;DHT22;16066;0.000;0.000;2023-03-13T02:29:44;19.10;41.70
28959;DHT22;16066;0.000;0.000;2023-03-13T02:32:10;19.10;41.70
28959;DHT22;16066;0.000;0.000;2023-03-13T02:34:38;19.10;41.80
28959;DHT22;16066;0.000;0.000;2023-03-13T02:37:06;19.10;42.50
28959;DHT22;16066;0.000;0.000;2023-03-13T02:39:36;19.10;41.90
28959;DHT22;16066;0.000;0.000;2023-03-13T02:42:03;19.00;41.80
28959;DHT22;16066;0.000;0.000;2023-03-13T02:44:29;19.00;41.90
28959;DHT22;16066;0.000;0.000;2023-03-13T02:46:54;19.00;41.90
28959;DHT22;16066;0.000;0.000;2023-03-13T02:49:24;19.00;41.90
28959;DHT22;16066;0.000;0.000;2023-03-13T02:51:52;19.00;42.00
28959;DHT22;16066;0.000;0.000;2023-03-13T02:54:27;19.00;42.00
28959;DHT22;16066;0.000;0.000;2023-03-13T02:56:58;19.00;42.00
28959;DHT22;16066;0.000;0.000;2023-03-13T02:59:25;18.90;41.90
28959;DHT22;16066;0.000;0.000;2023-03-13T03:01:51;18.90;42.00
28959;DHT22;16066;0.000;0.000;2023-03-13T03:04:21;18.90;42.00
28959;DHT22;16066;0.000;0.000;2023-03-13T03:06:47;18.90;42.00
28959;DHT22;16066;0.000;0.000;2023-03-13T03:09:13;18.90;42.10
28959;DHT22;16066;0.000;0.000;2023-03-13T03:11:38;18.90;42.10
28959;DHT22;16066;0.000;0.000;2023-03-13T03:14:04;18.90;42.20
28959;DHT22;16066;0.000;0.000;2023-03-13T03:16:30;18.90;42.20
28959;DHT22;16066;0.000;0.000;2023-03-13T03:18:56;18.90;42.20
28959;DHT22;16066;0.000;0.000;2023-03-13T03:21:21;18.90;42.30
28959;DHT22;16066;0.000;0.000;2023-03-13T03:23:49;18.80;42.20
28959;DHT22;16066;0.000;0.000;2023-03-13T03:26:15;18.90;42.40
28959;DHT22;16066;0.000;0.000;2023-03-13T03:28:40;18.80;42.30
28959;DHT22;16066;0.000;0.000;2023-03-13T03:31:07;18.80;42.30
28959;DHT22;16066;0.000;0.000;2023-03-13T03:33:34;18.80;42.30
28959;DHT22;16066;0.000;0.000;2023-03-13T03:36:01;18.80;42.30
28959;DHT22;16066;0.000;0.000;2023-03-13T03:38:27;18.80;42.30
28959;DHT22;16066;0.000;0.000;2023-03-13T03:40:53;18.80;42.30
28959;DHT22;16066;0.000;0.000;2023-03-13T03:43:19;18.80;42.40
28959;DHT22;16066;0.000;0.000;2023-03-13T03:45:44;18.80;42.40
28959;DHT22;16066;0.000;0.000;2023-03-13T03:48:10;18.80;42.40
28959;DHT22;16066;0.000;0.000;2023-03-13T03:50:35;18.80;43.10
28959;DHT22;16066;0.000;0.000;2023-03-13T03:53:01;18.80;42.40
28959;DHT22;16066;0.000;0.000;2023-03-13T03:55:26;18.80;42.50
28959;DHT22;16066;0.000;0.000;2023-03-13T03:57:52;18.80;42.50
28959;DHT22;16066;0.000;0.000;2023-03-13T04:00:17;18.70;42.50
28959;DHT22;16066;0.000;0.000;2023-03-13T04:02:46;18.70;42.50
28959;DHT22;16066;0.000;0.000;2023-03-13T04:05:12;18.70;42.50
28959;DHT22;16066;0.000;0.000;2023-03-13T04:07:37;18.70;42.50
28959;DHT22;16066;0.000;0.000;2023-03-13T04:10:03;18.70;42.40
28959;DHT22;16066;0.000;0.000;2023-03-13T04:12:29;18.70;42.50
28959;DHT22;16066;0.000;0.000;2023-03-13T04:14:55;18.70;42.50
28959;DHT22;16066;0.000;0.000;2023-03-13T04:17:20;18.70;42.60
28959;DHT22;16066;0.000;0.000;2023-03-13T04:19:46;18.70;42.70
28959;DHT22;16066;0.000;0.000;2023-03-13T04:22:11;18.70;42.60
28959;DHT22;16066;0.000;0.000;2023-03-13T04:24:37;18.70;42.60
28959;DHT22;16066;0.000;0.000;2023-03-13T04:27:02;18.70;42.60
28959;DHT22;16066;0.000;0.000;2023-03-13T04:29:31;18.70;42.60
28959;DHT22;16066;0.000;0.000;2023-03-13T04:31:56;18.70;42.80
28959;DHT22;16066;0.000;0.000;2023-03-13T04:34:22;18.70;42.70
28959;DHT22;16066;0.000;0.000;2023-03-13T04:36:47;18.70;42.70
28959;DHT22;16066;0.000;0.000;2023-03-13T04:39:13;18.70;42.70
28959;DHT22;16066;0.000;0.000;2023-03-13T04:41:38;18.70;42.80
28959;DHT22;16066;0.000;0.000;2023-03-13T04:44:04;18.70;42.70
28959;DHT22;16066;0.000;0.000;2023-03-13T04:46:30;18.60;42.70
28959;DHT22;16066;0.000;0.000;2023-03-13T04:48:55;18.60;42.70
28959;DHT22;16066;0.000;0.000;2023-03-13T04:51:21;18.70;42.70
28959;DHT22;16066;0.000;0.000;2023-03-13T04:53:46;18.60;42.70
28959;DHT22;16066;0.000;0.000;2023-03-13T04:56:20;18.70;42.80
28959;DHT22;16066;0.000;0.000;2023-03-13T04:58:46;18.60;42.70
28959;DHT22;16066;0.000;0.000;2023-03-13T05:01:12;18.60;42.70
28959;DHT22;16066;0.000;0.000;2023-03-13T05:03:37;18.60;42.80
28959;DHT22;16066;0.000;0.000;2023-03-13T05:06:03;18.60;42.70
28959;DHT22;16066;0.000;0.000;2023-03-13T05:08:28;18.60;42.80
28959;DHT22;16066;0.000;0.000;2023-03-13T05:10:54;18.60;42.80
28959;DHT22;16066;0.000;0.000;2023-03-13T05:13:19;18.60;42.80
28959;DHT22;16066;0.000;0.000;2023-03-13T05:15:45;18.60;42.80
28959;DHT22;16066;0.000;0.000;2023-03-13T05:18:10;18.60;42.90
28959;DHT22;16066;0.000;0.000;2023-03-13T05:20:37;18.60;42.90
28959;DHT22;16066;0.000;0.000;2023-03-13T05:23:02;18.60;42.90
28959;DHT22;16066;0.000;0.000;2023-03-13T05:25:28;18.60;43.00
28959;DHT22;16066;0.000;0.000;2023-03-13T05:27:54;18.60;42.90
28959;DHT22;16066;0.000;0.000;2023-03-13T05:30:20;18.60;42.90
28959;DHT22;16066;0.000;0.000;2023-03-13T05:32:45;18.60;43.00
28959;DHT22;16066;0.000;0.000;2023-03-13T05:35:11;18.60;42.90
28959;DHT22;16066;0.000;0.000;2023-03-13T05:37:36;18.60;42.90
28959;DHT22;16066;0.000;0.000;2023-03-13T05:40:02;18.60;43.00
28959;DHT22;16066;0.000;0.000;2023-03-13T05:42:28;18.60;43.00
28959;DHT22;16066;0.000;0.000;2023-03-13T05:44:54;18.60;43.00
28959;DHT22;16066;0.000;0.000;2023-03-13T05:47:19;18.60;43.00
28959;DHT22;16066;0.000;0.000;2023-03-13T05:49:45;18.60;43.10
28959;DHT22;16066;0.000;0.000;2023-03-13T05:52:10;18.60;43.00
28959;DHT22;16066;0.000;0.000;2023-03-13T05:54:36;18.60;43.10
28959;DHT22;16066;0.000;0.000;2023-03-13T05:57:01;18.60;43.10
28959;DHT22;16066;0.000;0.000;2023-03-13T05:59:27;18.50;42.90
28959;DHT22;16066;0.000;0.000;2023-03-13T06:01:52;18.50;43.00
28959;DHT22;16066;0.000;0.000;2023-03-13T06:04:18;18.60;43.10
28959;DHT22;16066;0.000;0.000;2023-03-13T06:06:45;18.50;43.20
28959;DHT22;16066;0.000;0.000;2023-03-13T06:09:10;18.50;43.50
28959;DHT22;16066;0.000;0.000;2023-03-13T06:11:36;18.50;43.40
28959;DHT22;16066;0.000;0.000;2023-03-13T06:14:02;18.50;43.50
28959;DHT22;16066;0.000;0.000;2023-03-13T06:16:28;18.50;43.60
28959;DHT22;16066;0.000;0.000;2023-03-13T06:18:53;18.50;43.50
28959;DHT22;16066;0.000;0.000;2023-03-13T06:21:19;18.50;43.40
28959;DHT22;16066;0.000;0.000;2023-03-13T06:23:44;18.60;43.50
28959;DHT22;16066;0.000;0.000;2023-03-13T06:26:10;18.60;43.40
28959;DHT22;16066;0.000;0.000;2023-03-13T06:28:35;18.50;43.40
28959;DHT22;16066;0.000;0.000;2023-03-13T06:31:06;18.50;43.40
28959;DHT22;16066;0.000;0.000;2023-03-13T06:33:32;18.50;43.50
28959;DHT22;16066;0.000;0.000;2023-03-13T06:35:59;18.50;43.50
28959;DHT22;16066;0.000;0.000;2023-03-13T06:38:25;18.60;43.80
28959;DHT22;16066;0.000;0.000;2023-03-13T06:40:51;18.60;43.70
28959;DHT22;16066;0.000;0.000;2023-03-13T06:43:16;18.60;43.70
28959;DHT22;16066;0.000;0.000;2023-03-13T06:45:42;18.60;43.70
28959;DHT22;16066;0.000;0.000;2023-03-13T06:48:07;18.70;43.70
28959;DHT22;16066;0.000;0.000;2023-03-13T06:50:37;18.60;43.40
28959;DHT22;16066;0.000;0.000;2023-03-13T06:53:03;18.60;43.30
28959;DHT22;16066;0.000;0.000;2023-03-13T06:55:28;18.60;43.30
28959;DHT22;16066;0.000;0.000;2023-03-13T06:57:54;18.70;43.30
28959;DHT22;16066;0.000;0.000;2023-03-13T07:00:19;18.70;43.30
28959;DHT22;16066;0.000;0.000;2023-03-13T07:02:45;18.80;43.30
28959;DHT22;16066;0.000;0.000;2023-03-13T07:05:11;18.80;43.30
28959;DHT22;16066;0.000;0.000;2023-03-13T07:07:39;18.90;43.20
28959;DHT22;16066;0.000;0.000;2023-03-13T07:10:05;19.00;43.30
28959;DHT22;16066;0.000;0.000;2023-03-13T07:12:32;19.10;43.20
28959;DHT22;16066;0.000;0.000;2023-03-13T07:14:58;19.30;43.40
28959;DHT22;16066;0.000;0.000;2023-03-13T07:17:23;19.40;44.00
28959;DHT22;16066;0.000;0.000;2023-03-13T07:19:49;19.50;43.10
28959;DHT22;16066;0.000;0.000;2023-03-13T07:22:14;19.60;43.00
28959;DHT22;16066;0.000;0.000;2023-03-13T07:24:40;19.70;43.00
28959;DHT22;16066;0.000;0.000;2023-03-13T07:27:05;19.90;43.00
28959;DHT22;16066;0.000;0.000;2023-03-13T07:29:31;19.90;42.90
28959;DHT22;16066;0.000;0.000;2023-03-13T07:31:56;19.90;42.90
28959;DHT22;16066;0.000;0.000;2023-03-13T07:34:22;20.00;42.80
28959;DHT22;16066;0.000;0.000;2023-03-13T07:36:47;20.10;42.70
28959;DHT22;16066;0.000;0.000;2023-03-13T07:39:13;20.10;42.60
28959;DHT22;16066;0.000;0.000;2023-03-13T07:41:38;20.10;42.60
28959;DHT22;16066;0.000;0.000;2023-03-13T07:44:04;20.10;42.50
28959;DHT22;16066;0.000;0.000;2023-03-13T07:46:30;20.10;42.40
28959;DHT22;16066;0.000;0.000;2023-03-13T07:48:55;20.10;42.40
28959;DHT22;16066;0.000;0.000;2023-03-13T07:51:23;20.20;42.50
28959;DHT22;16066;0.000;0.000;2023-03-13T07:53:49;20.30;42.30
28959;DHT22;16066;0.000;0.000;2023-03-13T07:56:17;20.30;42.30
28959;DHT22;16066;0.000;0.000;2023-03-13T07:58:44;20.30;42.60
28959;DHT22;16066;0.000;0.000;2023-03-13T08:01:16;20.30;42.50
28959;DHT22;16066;0.000;0.000;2023-03-13T08:03:43;20.30;42.70
28959;DHT22;16066;0.000;0.000;2023-03-13T08:06:12;20.30;42.50
28959;DHT22;16066;0.000;0.000;2023-03-13T08:08:38;20.40;42.70
28959;DHT22;16066;0.000;0.000;2023-03-13T08:11:06;20.40;42.60
28959;DHT22;16066;0.000;0.000;2023-03-13T08:13:33;20.40;42.60
28959;DHT22;16066;0.000;0.000;2023-03-13T08:16:10;20.40;42.50
28959;DHT22;16066;0.000;0.000;2023-03-13T08:18:39;20.50;42.50
28959;DHT22;16066;0.000;0.000;2023-03-13T08:21:07;20.50;42.40
28959;DHT22;16066;0.000;0.000;2023-03-13T08:23:33;20.60;42.50
28959;DHT22;16066;0.000;0.000;2023-03-13T08:26:09;20.60;42.40
28959;DHT22;16066;0.000;0.000;2023-03-13T08:28:36;20.60;42.50
28959;DHT22;16066;0.000;0.000;2023-03-13T08:33:39;20.70;42.40
28959;DHT22;16066;0.000;0.000;2023-03-13T08:36:16;20.70;42.40
28959;DHT22;16066;0.000;0.000;2023-03-13T08:38:42;20.70;42.50
28959;DHT22;16066;0.000;0.000;2023-03-13T08:41:10;20.70;42.50
28959;DHT22;16066;0.000;0.000;2023-03-13T08:43:36;20.80;42.60
28959;DHT22;16066;0.000;0.000;2023-03-13T08:46:02;20.80;42.40
28959;DHT22;16066;0.000;0.000;2023-03-13T08:48:28;20.80;42.40
28959;DHT22;16066;0.000;0.000;2023-03-13T08:51:07;20.90;42.50
28959;DHT22;16066;0.000;0.000;2023-03-13T08:53:34;20.90;42.50
28959;DHT22;16066;0.000;0.000;2023-03-13T08:56:00;20.90;42.50
28959;DHT22;16066;0.000;0.000;2023-03-13T08:58:25;20.80;42.20
28959;DHT22;16066;0.000;0.000;2023-03-13T09:00:51;20.90;42.30
28959;DHT22;16066;0.000;0.000;2023-03-13T09:03:17;20.90;42.20
28959;DHT22;16066;0.000;0.000;2023-03-13T09:05:43;20.80;42.10
28959;DHT22;16066;0.000;0.000;2023-03-13T09:08:10;20.90;42.20
28959;DHT22;16066;0.000;0.000;2023-03-13T09:10:36;20.90;42.20
28959;DHT22;16066;0.000;0.000;2023-03-13T09:13:01;20.80;42.20
28959;DHT22;16066;0.000;0.000;2023-03-13T09:15:27;20.90;42.40
28959;DHT22;16066;0.000;0.000;2023-03-13T09:17:53;20.90;42.30
28959;DHT22;16066;0.000;0.000;2023-03-13T09:20:18;20.80;42.30
28959;DHT22;16066;0.000;0.000;2023-03-13T09:22:44;20.90;42.20
28959;DHT22;16066;0.000;0.000;2023-03-13T09:25:11;20.80;42.20
28959;DHT22;16066;0.000;0.000;2023-03-13T09:27:36;20.80;42.20
28959;DHT22;16066;0.000;0.000;2023-03-13T09:30:02;20.90;42.30
28959;DHT22;16066;0.000;0.000;2023-03-13T09:32:28;20.80;42.00
28959;DHT22;16066;0.000;0.000;2023-03-13T09:34:53;20.80;42.00
28959;DHT22;16066;0.000;0.000;2023-03-13T09:37:20;20.80;42.20
28959;DHT22;16066;0.000;0.000;2023-03-13T09:39:45;20.70;42.30
28959;DHT22;16066;0.000;0.000;2023-03-13T09:42:20;20.60;42.50
28959;DHT22;16066;0.000;0.000;2023-03-13T09:44:54;20.70;42.60
28959;DHT22;16066;0.000;0.000;2023-03-13T09:47:29;20.70;42.70
28959;DHT22;16066;0.000;0.000;2023-03-13T09:50:02;20.70;42.50
28959;DHT22;16066;0.000;0.000;2023-03-13T09:52:33;20.80;42.50
28959;DHT22;16066;0.000;0.000;2023-03-13T09:55:04;20.80;42.60
28959;DHT22;16066;0.000;0.000;2023-03-13T09:57:39;20.80;42.60
28959;DHT22;16066;0.000;0.000;2023-03-13T10:00:15;20.80;42.50
28959;DHT22;16066;0.000;0.000;2023-03-13T10:02:45;20.90;42.60
28959;DHT22;16066;0.000;0.000;2023-03-13T10:05:21;20.80;42.50
28959;DHT22;16066;0.000;0.000;2023-03-13T10:07:47;20.80;42.20
28959;DHT22;16066;0.000;0.000;2023-03-13T10:10:16;20.70;42.50
28959;DHT22;16066;0.000;0.000;2023-03-13T10:12:45;20.70;42.40
28959;DHT22;16066;0.000;0.000;2023-03-13T10:15:16;20.70;42.60
28959;DHT22;16066;0.000;0.000;2023-03-13T10:17:42;20.70;42.90
28959;DHT22;16066;0.000;0.000;2023-03-13T10:22:47;20.70;42.80
28959;DHT22;16066;0.000;0.000;2023-03-13T10:25:32;20.80;42.80
28959;DHT22;16066;0.000;0.000;2023-03-13T10:27:58;20.80;42.80
28959;DHT22;16066;0.000;0.000;2023-03-13T10:30:33;20.80;42.80
28959;DHT22;16066;0.000;0.000;2023-03-13T10:35:34;20.80;42.80
28959;DHT22;16066;0.000;0.000;2023-03-13T10:38:16;20.80;42.80
28959;DHT22;16066;0.000;0.000;2023-03-13T10:40:42;20.90;42.80
28959;DHT22;16066;0.000;0.000;2023-03-13T10:43:18;20.90;42.70
28959;DHT22;16066;0.000;0.000;2023-03-13T10:45:44;20.90;42.70
28959;DHT22;16066;0.000;0.000;2023-03-13T10:48:12;20.90;42.60
28959;DHT22;16066;0.000;0.000;2023-03-13T10:53:24;20.90;42.50
28959;DHT22;16066;0.000;0.000;2023-03-13T10:56:02;20.90;42.50
28959;DHT22;16066;0.000;0.000;2023-03-13T11:01:20;20.80;42.70
28959;DHT22;16066;0.000;0.000;2023-03-13T11:03:48;20.80;42.80
28959;DHT22;16066;0.000;0.000;2023-03-13T11:06:26;20.80;42.60
28959;DHT22;16066;0.000;0.000;2023-03-13T11:09:12;20.90;42.50
28959;DHT22;16066;0.000;0.000;2023-03-13T11:11:54;20.80;42.70
28959;DHT22;16066;0.000;0.000;2023-03-13T11:14:24;20.80;42.70
28959;DHT22;16066;0.000;0.000;2023-03-13T11:16:54;20.80;42.40
28959;DHT22;16066;0.000;0.000;2023-03-13T11:19:41;20.80;42.50
28959;DHT22;16066;0.000;0.000;2023-03-13T11:27:53;20.80;42.70
28959;DHT22;16066;0.000;0.000;2023-03-13T11:30:58;20.80;42.90
28959;DHT22;16066;0.000;0.000;2023-03-13T11:33:38;20.80;42.90
28959;DHT22;16066;0.000;0.000;2023-03-13T11:36:08;20.80;42.30
28959;DHT22;16066;0.000;0.000;2023-03-13T11:38:41;20.80;42.20
28959;DHT22;16066;0.000;0.000;2023-03-13T11:41:16;20.90;42.40
28959;DHT22;16066;0.000;0.000;2023-03-13T11:46:49;20.80;42.30
28959;DHT22;16066;0.000;0.000;2023-03-13T11:52:23;20.90;42.30
28959;DHT22;16066;0.000;0.000;2023-03-13T12:03:29;20.90;42.20
28959;DHT22;16066;0.000;0.000;2023-03-13T12:05:58;20.90;42.30
28959;DHT22;16066;0.000;0.000;2023-03-13T12:11:32;20.90;42.10
28959;DHT22;16066;0.000;0.000;2023-03-13T12:14:04;20.90;42.40
28959;DHT22;16066;0.000;0.000;2023-03-13T12:19:13;20.90;42.30
28959;DHT22;16066;0.000;0.000;2023-03-13T12:22:02;20.90;42.30
28959;DHT22;16066;0.000;0.000;2023-03-13T12:24:59;20.90;42.30
28959;DHT22;16066;0.000;0.000;2023-03-13T12:27:52;20.90;42.60
28959;DHT22;16066;0.000;0.000;2023-03-13T12:30:32;20.90;42.60
28959;DHT22;16066;0.000;0.000;2023-03-13T12:35:43;20.90;42.70
28959;DHT22;16066;0.000;0.000;2023-03-13T12:38:24;20.90;42.50
28959;DHT22;16066;0.000;0.000;2023-03-13T12:41:29;20.90;42.70
28959;DHT22;16066;0.000;0.000;2023-03-13T12:43:55;20.80;42.70
28959;DHT22;16066;0.000;0.000;2023-03-13T12:51:34;20.60;43.90
28959;DHT22;16066;0.000;0.000;2023-03-13T12:54:33;20.60;44.00
28959;DHT22;16066;0.000;0.000;2023-03-13T12:59:39;20.50;44.50
28959;DHT22;16066;0.000;0.000;2023-03-13T13:02:18;20.50;44.70
28959;DHT22;16066;0.000;0.000;2023-03-13T13:04:47;20.50;44.80
28959;DHT22;16066;0.000;0.000;2023-03-13T13:07:30;20.40;44.90
28959;DHT22;16066;0.000;0.000;2023-03-13T13:12:41;20.40;44.90
28959;DHT22;16066;0.000;0.000;2023-03-13T13:15:26;20.40;44.70
28959;DHT22;16066;0.000;0.000;2023-03-13T13:18:09;20.40;44.50
28959;DHT22;16066;0.000;0.000;2023-03-13T13:23:26;20.40;44.80
28959;DHT22;16066;0.000;0.000;2023-03-13T13:25:54;20.40;45.00
28959;DHT22;16066;0.000;0.000;2023-03-13T13:28:27;20.30;45.00
28959;DHT22;16066;0.000;0.000;2023-03-13T13:30:56;20.30;44.90
28959;DHT22;16066;0.000;0.000;2023-03-13T13:38:46;20.30;44.60
28959;DHT22;16066;0.000;0.000;2023-03-13T13:43:39;20.30;44.50
28959;DHT22;16066;0.000;0.000;2023-03-13T13:46:24;20.30;44.50
28959;DHT22;16066;0.000;0.000;2023-03-13T13:49:13;20.40;44.90
28959;DHT22;16066;0.000;0.000;2023-03-13T13:51:40;20.40;44.50
28959;DHT22;16066;0.000;0.000;2023-03-13T13:54:32;20.40;44.40
28959;DHT22;16066;0.000;0.000;2023-03-13T13:57:18;20.40;44.40
28959;DHT22;16066;0.000;0.000;2023-03-13T13:59:49;20.40;44.50
28959;DHT22;16066;0.000;0.000;2023-03-13T14:02:17;20.40;44.50
28959;DHT22;16066;0.000;0.000;2023-03-13T14:04:51;20.40;44.50
28959;DHT22;16066;0.000;0.000;2023-03-13T14:07:29;20.50;44.50
28959;DHT22;16066;0.000;0.000;2023-03-13T14:10:31;20.50;44.50
28959;DHT22;16066;0.000;0.000;2023-03-13T14:12:59;20.50;44.40
28959;DHT22;16066;0.000;0.000;2023-03-13T14:15:30;20.50;44.30
28959;DHT22;16066;0.000;0.000;2023-03-13T14:18:08;20.60;44.30
28959;DHT22;16066;0.000;0.000;2023-03-13T14:20:55;20.60;44.20
28959;DHT22;16066;0.000;0.000;2023-03-13T14:25:54;20.70;43.90
28959;DHT22;16066;0.000;0.000;2023-03-13T14:28:25;20.70;43.90
28959;DHT22;16066;0.000;0.000;2023-03-13T14:30:53;20.70;44.10
28959;DHT22;16066;0.000;0.000;2023-03-13T14:33:19;20.80;44.40
28959;DHT22;16066;0.000;0.000;2023-03-13T14:35:46;20.90;44.20
28959;DHT22;16066;0.000;0.000;2023-03-13T14:38:17;20.90;44.00
28959;DHT22;16066;0.000;0.000;2023-03-13T14:40:43;20.90;44.00
28959;DHT22;16066;0.000;0.000;2023-03-13T14:43:30;21.00;44.00
28959;DHT22;16066;0.000;0.000;2023-03-13T14:45:58;21.00;44.00
28959;DHT22;16066;0.000;0.000;2023-03-13T14:48:32;21.10;43.70
28959;DHT22;16066;0.000;0.000;2023-03-13T14:51:08;21.10;43.70
28959;DHT22;16066;0.000;0.000;2023-03-13T14:53:34;21.10;43.90
28959;DHT22;16066;0.000;0.000;2023-03-13T14:56:16;21.20;43.90
28959;DHT22;16066;0.000;0.000;2023-03-13T14:58:44;21.10;43.70
28959;DHT22;16066;0.000;0.000;2023-03-13T15:01:26;21.20;43.80
28959;DHT22;16066;0.000;0.000;2023-03-13T15:03:54;21.20;43.90
28959;DHT22;16066;0.000;0.000;2023-03-13T15:06:22;21.20;44.10
28959;DHT22;16066;0.000;0.000;2023-03-13T15:09:12;21.20;43.90
28959;DHT22;16066;0.000;0.000;2023-03-13T15:11:42;21.20;44.10
28959;DHT22;16066;0.000;0.000;2023-03-13T15:14:34;21.30;44.10
28959;DHT22;16066;0.000;0.000;2023-03-13T15:17:00;21.30;43.90
28959;DHT22;16066;0.000;0.000;2023-03-13T15:19:25;21.30;43.80
28959;DHT22;16066;0.000;0.000;2023-03-13T15:21:51;21.30;43.80
28959;DHT22;16066;0.000;0.000;2023-03-13T15:24:17;21.30;43.80
28959;DHT22;16066;0.000;0.000;2023-03-13T15:26:42;21.20;43.50
28959;DHT22;16066;0.000;0.000;2023-03-13T15:29:09;21.20;43.40
28959;DHT22;16066;0.000;0.000;2023-03-13T15:31:35;21.30;43.40
28959;DHT22;16066;0.000;0.000;2023-03-13T15:34:01;21.20;43.80
28959;DHT22;16066;0.000;0.000;2023-03-13T15:36:28;21.20;43.40
28959;DHT22;16066;0.000;0.000;2023-03-13T15:38:54;21.20;43.30
28959;DHT22;16066;0.000;0.000;2023-03-13T15:41:21;21.30;43.10
28959;DHT22;16066;0.000;0.000;2023-03-13T15:43:47;21.30;43.00
28959;DHT22;16066;0.000;0.000;2023-03-13T15:46:17;21.30;42.90
28959;DHT22;16066;0.000;0.000;2023-03-13T15:48:43;21.30;43.40
28959;DHT22;16066;0.000;0.000;2023-03-13T15:51:12;21.20;42.80
28959;DHT22;16066;0.000;0.000;2023-03-13T15:53:39;21.20;42.90
28959;DHT22;16066;0.000;0.000;2023-03-13T15:56:14;21.20;42.80
28959;DHT22;16066;0.000;0.000;2023-03-13T15:58:40;21.20;42.90
28959;DHT22;16066;0.000;0.000;2023-03-13T16:01:08;21.20;42.90
28959;DHT22;16066;0.000;0.000;2023-03-13T16:03:33;21.10;42.80
28959;DHT22;16066;0.000;0.000;2023-03-13T16:05:59;21.10;42.90
28959;DHT22;16066;0.000;0.000;2023-03-13T16:08:26;21.10;43.00
28959;DHT22;16066;0.000;0.000;2023-03-13T16:10:53;21.20;43.60
28959;DHT22;16066;0.000;0.000;2023-03-13T16:13:19;21.20;43.00
28959;DHT22;16066;0.000;0.000;2023-03-13T16:15:45;21.20;43.00
28959;DHT22;16066;0.000;0.000;2023-03-13T16:18:22;21.20;43.00
28959;DHT22;16066;0.000;0.000;2023-03-13T16:20:48;21.10;42.90
28959;DHT22;16066;0.000;0.000;2023-03-13T16:23:13;21.10;42.90
28959;DHT22;16066;0.000;0.000;2023-03-13T16:25:39;21.10;42.90
28959;DHT22;16066;0.000;0.000;2023-03-13T16:28:05;21.10;42.90
28959;DHT22;16066;0.000;0.000;2023-03-13T16:30:35;21.10;42.90
28959;DHT22;16066;0.000;0.000;2023-03-13T16:33:01;21.10;42.90
28959;DHT22;16066;0.000;0.000;2023-03-13T16:35:27;21.10;42.90
28959;DHT22;16066;0.000;0.000;2023-03-13T16:37:54;21.10;43.00
28959;DHT22;16066;0.000;0.000;2023-03-13T16:40:23;21.10;42.90
28959;DHT22;16066;0.000;0.000;2023-03-13T16:42:49;21.10;43.00
28959;DHT22;16066;0.000;0.000;2023-03-13T16:45:15;21.10;42.90
28959;DHT22;16066;0.000;0.000;2023-03-13T16:47:42;21.10;42.90
28959;DHT22;16066;0.000;0.000;2023-03-13T16:52:39;21.10;43.00
28959;DHT22;16066;0.000;0.000;2023-03-13T16:55:05;21.10;42.90
28959;DHT22;16066;0.000;0.000;2023-03-13T16:57:31;21.10;42.80
28959;DHT22;16066;0.000;0.000;2023-03-13T16:59:56;21.10;43.00
28959;DHT22;16066;0.000;0.000;2023-03-13T17:02:22;21.10;43.10
28959;DHT22;16066;0.000;0.000;2023-03-13T17:04:47;21.20;43.20
28959;DHT22;16066;0.000;0.000;2023-03-13T17:07:18;21.20;43.30
28959;DHT22;16066;0.000;0.000;2023-03-13T17:09:44;21.20;43.20
28959;DHT22;16066;0.000;0.000;2023-03-13T17:12:09;21.20;43.20
28959;DHT22;16066;0.000;0.000;2023-03-13T17:14:35;21.20;43.20